sensor_id;sensor_type;location;lat;lon;timestamp;P1;durP1;ratioP1;P2;durP2;ratioP2
57573;SDS011;68988;49.000;21.242;2023-12-20T00:01:16;5.68;;;5.28;;
57573;SDS011;68988;49.000;21.242;2023-12-20T00:03:42;5.80;;;5.40;;
57573;SDS011;68988;49.000;21.242;2023-12-20T00:06:07;5.60;;;5.30;;
57573;SDS011;68988;49.000;21.242;2023-12-20T00:08:32;6.32;;;5.90;;
57573;SDS011;68988;49.000;21.242;2023-12-20T00:10:58;5.60;;;5.30;;
57573;SDS011;68988;49.000;21.242;2023-12-20T00:13:23;5.82;;;5.43;;
57573;SDS011;68988;49.000;21.242;2023-12-20T00:15:48;8.38;;;5.70;;
57573;SDS011;68988;49.000;21.242;2023-12-20T00:18:14;5.60;;;5.20;;
57573;SDS011;68988;49.000;21.242;2023-12-20T00:20:39;6.22;;;5.75;;
57573;SDS011;68988;49.000;21.242;2023-12-20T00:23:04;7.13;;;5.50;;
57573;SDS011;68988;49.000;21.242;2023-12-20T00:25:30;5.88;;;5.43;;
57573;SDS011;68988;49.000;21.242;2023-12-20T00:27:55;5.43;;;5.13;;
57573;SDS011;68988;49.000;21.242;2023-12-20T00:30:21;6.13;;;5.63;;
57573;SDS011;68988;49.000;21.242;2023-12-20T00:32:46;5.45;;;5.15;;
57573;SDS011;68988;49.000;21.242;2023-12-20T00:35:15;5.60;;;5.20;;
57573;SDS011;68988;49.000;21.242;2023-12-20T00:37:41;5.38;;;4.95;;
57573;SDS011;68988;49.000;21.242;2023-12-20T00:40:08;6.22;;;5.72;;
57573;SDS011;68988;49.000;21.242;2023-12-20T00:42:33;5.22;;;4.88;;
57573;SDS011;68988;49.000;21.242;2023-12-20T00:44:59;5.75;;;5.38;;
57573;SDS011;68988;49.000;21.242;2023-12-20T00:47:25;5.80;;;5.50;;
57573;SDS011;68988;49.000;21.242;2023-12-20T00:49:50;5.22;;;4.93;;
57573;SDS011;68988;49.000;21.242;2023-12-20T00:52:16;5.82;;;5.32;;
57573;SDS011;68988;49.000;21.242;2023-12-20T00:54:42;5.35;;;4.97;;
57573;SDS011;68988;49.000;21.242;2023-12-20T00:57:08;6.20;;;5.75;;
57573;SDS011;68988;49.000;21.242;2023-12-20T00:59:33;5.70;;;5.35;;
57573;SDS011;68988;49.000;21.242;2023-12-20T01:01:59;4.82;;;4.63;;
57573;SDS011;68988;49.000;21.242;2023-12-20T01:04:24;5.60;;;5.30;;
57573;SDS011;68988;49.000;21.242;2023-12-20T01:06:49;5.82;;;5.53;;
57573;SDS011;68988;49.000;21.242;2023-12-20T01:09:15;5.38;;;5.07;;
57573;SDS011;68988;49.000;21.242;2023-12-20T01:11:40;5.45;;;5.05;;
57573;SDS011;68988;49.000;21.242;2023-12-20T01:14:06;5.60;;;5.30;;
57573;SDS011;68988;49.000;21.242;2023-12-20T01:16:31;5.60;;;5.30;;
57573;SDS011;68988;49.000;21.242;2023-12-20T01:18:56;5.50;;;5.20;;
57573;SDS011;68988;49.000;21.242;2023-12-20T01:21:22;5.35;;;5.05;;
57573;SDS011;68988;49.000;21.242;2023-12-20T01:23:47;4.93;;;4.63;;
57573;SDS011;68988;49.000;21.242;2023-12-20T01:26:12;5.75;;;5.35;;
57573;SDS011;68988;49.000;21.242;2023-12-20T01:28:39;6.07;;;5.68;;
57573;SDS011;68988;49.000;21.242;2023-12-20T01:31:04;6.15;;;5.22;;
57573;SDS011;68988;49.000;21.242;2023-12-20T01:33:30;5.38;;;5.00;;
57573;SDS011;68988;49.000;21.242;2023-12-20T01:35:55;5.20;;;4.90;;
57573;SDS011;68988;49.000;21.242;2023-12-20T01:38:20;5.28;;;4.97;;
57573;SDS011;68988;49.000;21.242;2023-12-20T01:40:46;6.03;;;5.63;;
57573;SDS011;68988;49.000;21.242;2023-12-20T01:43:11;5.65;;;5.25;;
57573;SDS011;68988;49.000;21.242;2023-12-20T01:45:37;5.72;;;5.43;;
57573;SDS011;68988;49.000;21.242;2023-12-20T01:48:03;5.47;;;5.15;;
57573;SDS011;68988;49.000;21.242;2023-12-20T01:50:30;5.30;;;4.93;;
57573;SDS011;68988;49.000;21.242;2023-12-20T01:52:57;5.50;;;5.20;;
57573;SDS011;68988;49.000;21.242;2023-12-20T01:55:25;5.93;;;5.55;;
57573;SDS011;68988;49.000;21.242;2023-12-20T01:57:52;5.53;;;5.22;;
57573;SDS011;68988;49.000;21.242;2023-12-20T02:00:18;5.45;;;5.07;;
57573;SDS011;68988;49.000;21.242;2023-12-20T02:02:48;5.55;;;5.25;;
57573;SDS011;68988;49.000;21.242;2023-12-20T02:05:15;5.70;;;5.28;;
57573;SDS011;68988;49.000;21.242;2023-12-20T02:07:41;5.88;;;5.57;;
57573;SDS011;68988;49.000;21.242;2023-12-20T02:10:06;5.25;;;4.95;;
57573;SDS011;68988;49.000;21.242;2023-12-20T02:12:32;5.90;;;5.40;;
57573;SDS011;68988;49.000;21.242;2023-12-20T02:14:58;5.45;;;5.15;;
57573;SDS011;68988;49.000;21.242;2023-12-20T02:17:23;5.32;;;5.00;;
57573;SDS011;68988;49.000;21.242;2023-12-20T02:19:49;5.15;;;4.85;;
57573;SDS011;68988;49.000;21.242;2023-12-20T02:22:15;4.90;;;4.60;;
57573;SDS011;68988;49.000;21.242;2023-12-20T02:24:40;5.13;;;4.82;;
57573;SDS011;68988;49.000;21.242;2023-12-20T02:27:06;5.22;;;4.93;;
57573;SDS011;68988;49.000;21.242;2023-12-20T02:29:33;5.13;;;4.82;;
57573;SDS011;68988;49.000;21.242;2023-12-20T02:31:59;5.10;;;4.70;;
57573;SDS011;68988;49.000;21.242;2023-12-20T02:34:24;5.72;;;5.35;;
57573;SDS011;68988;49.000;21.242;2023-12-20T02:36:49;4.88;;;4.68;;
57573;SDS011;68988;49.000;21.242;2023-12-20T02:39:15;5.35;;;4.95;;
57573;SDS011;68988;49.000;21.242;2023-12-20T02:41:40;5.30;;;5.00;;
57573;SDS011;68988;49.000;21.242;2023-12-20T02:44:06;4.88;;;4.57;;
57573;SDS011;68988;49.000;21.242;2023-12-20T02:46:31;5.88;;;5.57;;
57573;SDS011;68988;49.000;21.242;2023-12-20T02:48:56;4.93;;;4.72;;
57573;SDS011;68988;49.000;21.242;2023-12-20T02:51:22;5.38;;;5.07;;
57573;SDS011;68988;49.000;21.242;2023-12-20T02:53:47;5.30;;;5.00;;
57573;SDS011;68988;49.000;21.242;2023-12-20T02:56:12;4.82;;;4.53;;
57573;SDS011;68988;49.000;21.242;2023-12-20T02:58:39;5.70;;;5.40;;
57573;SDS011;68988;49.000;21.242;2023-12-20T03:01:05;5.45;;;5.15;;
57573;SDS011;68988;49.000;21.242;2023-12-20T03:03:30;4.72;;;4.53;;
57573;SDS011;68988;49.000;21.242;2023-12-20T03:05:56;5.10;;;4.80;;
57573;SDS011;68988;49.000;21.242;2023-12-20T03:08:21;4.82;;;4.53;;
57573;SDS011;68988;49.000;21.242;2023-12-20T03:10:47;4.95;;;4.68;;
57573;SDS011;68988;49.000;21.242;2023-12-20T03:13:12;5.03;;;4.72;;
57573;SDS011;68988;49.000;21.242;2023-12-20T03:15:37;4.60;;;4.30;;
57573;SDS011;68988;49.000;21.242;2023-12-20T03:18:03;4.95;;;4.65;;
57573;SDS011;68988;49.000;21.242;2023-12-20T03:20:28;4.82;;;4.63;;
57573;SDS011;68988;49.000;21.242;2023-12-20T03:22:56;5.60;;;5.18;;
57573;SDS011;68988;49.000;21.242;2023-12-20T03:25:21;4.97;;;4.75;;
57573;SDS011;68988;49.000;21.242;2023-12-20T03:27:46;5.30;;;5.00;;
57573;SDS011;68988;49.000;21.242;2023-12-20T03:30:12;5.05;;;4.75;;
57573;SDS011;68988;49.000;21.242;2023-12-20T03:32:38;5.40;;;5.00;;
57573;SDS011;68988;49.000;21.242;2023-12-20T03:35:05;4.97;;;4.68;;
57573;SDS011;68988;49.000;21.242;2023-12-20T03:37:30;5.05;;;4.75;;
57573;SDS011;68988;49.000;21.242;2023-12-20T03:39:56;4.35;;;4.05;;
57573;SDS011;68988;49.000;21.242;2023-12-20T03:42:21;4.78;;;4.55;;
57573;SDS011;68988;49.000;21.242;2023-12-20T03:44:46;4.80;;;4.50;;
57573;SDS011;68988;49.000;21.242;2023-12-20T03:47:12;4.80;;;4.50;;
57573;SDS011;68988;49.000;21.242;2023-12-20T03:49:37;4.88;;;4.60;;
57573;SDS011;68988;49.000;21.242;2023-12-20T03:52:03;4.82;;;4.63;;
57573;SDS011;68988;49.000;21.242;2023-12-20T03:54:29;4.63;;;4.32;;
57573;SDS011;68988;49.000;21.242;2023-12-20T03:56:54;5.90;;;4.70;;
57573;SDS011;68988;49.000;21.242;2023-12-20T03:59:20;4.20;;;4.00;;
57573;SDS011;68988;49.000;21.242;2023-12-20T04:01:45;4.88;;;4.57;;
57573;SDS011;68988;49.000;21.242;2023-12-20T04:04:11;4.63;;;4.43;;
57573;SDS011;68988;49.000;21.242;2023-12-20T04:06:36;4.20;;;4.00;;
57573;SDS011;68988;49.000;21.242;2023-12-20T04:09:03;5.10;;;4.80;;
57573;SDS011;68988;49.000;21.242;2023-12-20T04:11:28;4.43;;;4.22;;
57573;SDS011;68988;49.000;21.242;2023-12-20T04:13:53;4.60;;;4.40;;
57573;SDS011;68988;49.000;21.242;2023-12-20T04:16:19;4.78;;;4.55;;
57573;SDS011;68988;49.000;21.242;2023-12-20T04:18:44;4.53;;;4.28;;
57573;SDS011;68988;49.000;21.242;2023-12-20T04:21:10;4.38;;;4.18;;
57573;SDS011;68988;49.000;21.242;2023-12-20T04:23:35;5.22;;;4.93;;
57573;SDS011;68988;49.000;21.242;2023-12-20T04:26:00;4.50;;;4.20;;
57573;SDS011;68988;49.000;21.242;2023-12-20T04:28:26;4.80;;;4.50;;
57573;SDS011;68988;49.000;21.242;2023-12-20T04:30:51;5.07;;;4.70;;
57573;SDS011;68988;49.000;21.242;2023-12-20T04:33:17;4.85;;;4.55;;
57573;SDS011;68988;49.000;21.242;2023-12-20T04:35:42;4.80;;;4.60;;
57573;SDS011;68988;49.000;21.242;2023-12-20T04:38:08;4.70;;;4.47;;
57573;SDS011;68988;49.000;21.242;2023-12-20T04:40:34;5.00;;;4.60;;
57573;SDS011;68988;49.000;21.242;2023-12-20T04:42:59;4.60;;;4.40;;
57573;SDS011;68988;49.000;21.242;2023-12-20T04:45:24;4.80;;;4.50;;
57573;SDS011;68988;49.000;21.242;2023-12-20T04:47:50;4.90;;;4.60;;
57573;SDS011;68988;49.000;21.242;2023-12-20T04:50:16;4.43;;;4.22;;
57573;SDS011;68988;49.000;21.242;2023-12-20T04:52:41;4.70;;;4.40;;
57573;SDS011;68988;49.000;21.242;2023-12-20T04:55:07;5.25;;;4.32;;
57573;SDS011;68988;49.000;21.242;2023-12-20T04:57:33;4.40;;;4.10;;
57573;SDS011;68988;49.000;21.242;2023-12-20T04:59:59;4.80;;;4.50;;
57573;SDS011;68988;49.000;21.242;2023-12-20T05:02:24;4.70;;;4.40;;
57573;SDS011;68988;49.000;21.242;2023-12-20T05:04:50;5.07;;;4.78;;
57573;SDS011;68988;49.000;21.242;2023-12-20T05:07:15;4.47;;;4.28;;
57573;SDS011;68988;49.000;21.242;2023-12-20T05:09:41;4.35;;;4.15;;
57573;SDS011;68988;49.000;21.242;2023-12-20T05:12:06;4.00;;;3.80;;
57573;SDS011;68988;49.000;21.242;2023-12-20T05:14:32;4.55;;;4.25;;
57573;SDS011;68988;49.000;21.242;2023-12-20T05:16:58;5.25;;;4.78;;
57573;SDS011;68988;49.000;21.242;2023-12-20T05:19:23;4.72;;;4.43;;
57573;SDS011;68988;49.000;21.242;2023-12-20T05:21:49;4.35;;;4.15;;
57573;SDS011;68988;49.000;21.242;2023-12-20T05:24:14;4.47;;;4.28;;
57573;SDS011;68988;49.000;21.242;2023-12-20T05:26:40;4.47;;;4.18;;
57573;SDS011;68988;49.000;21.242;2023-12-20T05:29:05;4.32;;;4.13;;
57573;SDS011;68988;49.000;21.242;2023-12-20T05:31:31;4.38;;;4.18;;
57573;SDS011;68988;49.000;21.242;2023-12-20T05:33:56;4.30;;;4.10;;
57573;SDS011;68988;49.000;21.242;2023-12-20T05:36:22;4.43;;;4.22;;
57573;SDS011;68988;49.000;21.242;2023-12-20T05:38:47;4.43;;;4.20;;
57573;SDS011;68988;49.000;21.242;2023-12-20T05:41:13;4.30;;;4.10;;
57573;SDS011;68988;49.000;21.242;2023-12-20T05:43:38;3.90;;;3.70;;
57573;SDS011;68988;49.000;21.242;2023-12-20T05:46:04;4.38;;;4.18;;
57573;SDS011;68988;49.000;21.242;2023-12-20T05:48:30;4.40;;;4.20;;
57573;SDS011;68988;49.000;21.242;2023-12-20T05:50:55;11.52;;;10.63;;
57573;SDS011;68988;49.000;21.242;2023-12-20T05:53:21;12.00;;;10.90;;
57573;SDS011;68988;49.000;21.242;2023-12-20T05:55:46;10.55;;;8.00;;
57573;SDS011;68988;49.000;21.242;2023-12-20T05:58:11;8.52;;;7.80;;
57573;SDS011;68988;49.000;21.242;2023-12-20T06:00:37;7.93;;;7.43;;
57573;SDS011;68988;49.000;21.242;2023-12-20T06:03:03;7.18;;;6.63;;
57573;SDS011;68988;49.000;21.242;2023-12-20T06:05:29;7.47;;;6.90;;
57573;SDS011;68988;49.000;21.242;2023-12-20T06:07:55;7.25;;;6.65;;
57573;SDS011;68988;49.000;21.242;2023-12-20T06:10:26;6.70;;;6.20;;
57573;SDS011;68988;49.000;21.242;2023-12-20T06:12:51;10.02;;;6.53;;
57573;SDS011;68988;49.000;21.242;2023-12-20T06:15:17;9.63;;;6.15;;
57573;SDS011;68988;49.000;21.242;2023-12-20T06:17:42;6.65;;;6.25;;
57573;SDS011;68988;49.000;21.242;2023-12-20T06:20:08;6.13;;;5.72;;
57573;SDS011;68988;49.000;21.242;2023-12-20T06:22:34;5.85;;;5.53;;
57573;SDS011;68988;49.000;21.242;2023-12-20T06:25:00;6.22;;;5.82;;
57573;SDS011;68988;49.000;21.242;2023-12-20T06:27:25;5.88;;;5.47;;
57573;SDS011;68988;49.000;21.242;2023-12-20T06:29:50;5.80;;;5.32;;
57573;SDS011;68988;49.000;21.242;2023-12-20T06:32:16;5.93;;;5.45;;
57573;SDS011;68988;49.000;21.242;2023-12-20T06:34:41;5.47;;;5.18;;
57573;SDS011;68988;49.000;21.242;2023-12-20T06:37:07;5.80;;;5.30;;
57573;SDS011;68988;49.000;21.242;2023-12-20T06:39:32;5.82;;;5.43;;
57573;SDS011;68988;49.000;21.242;2023-12-20T06:41:59;6.10;;;5.55;;
57573;SDS011;68988;49.000;21.242;2023-12-20T06:44:24;5.55;;;5.25;;
57573;SDS011;68988;49.000;21.242;2023-12-20T06:46:50;5.45;;;5.15;;
57573;SDS011;68988;49.000;21.242;2023-12-20T06:49:15;5.20;;;4.90;;
57573;SDS011;68988;49.000;21.242;2023-12-20T06:51:40;5.50;;;5.20;;
57573;SDS011;68988;49.000;21.242;2023-12-20T06:54:06;5.80;;;5.10;;
57573;SDS011;68988;49.000;21.242;2023-12-20T06:56:32;6.15;;;5.22;;
57573;SDS011;68988;49.000;21.242;2023-12-20T06:58:57;8.77;;;5.20;;
57573;SDS011;68988;49.000;21.242;2023-12-20T07:01:23;10.20;;;4.93;;
57573;SDS011;68988;49.000;21.242;2023-12-20T07:03:48;6.88;;;5.00;;
57573;SDS011;68988;49.000;21.242;2023-12-20T07:06:13;5.30;;;5.00;;
57573;SDS011;68988;49.000;21.242;2023-12-20T07:08:41;5.18;;;4.88;;
57573;SDS011;68988;49.000;21.242;2023-12-20T07:11:06;5.15;;;4.80;;
57573;SDS011;68988;49.000;21.242;2023-12-20T07:13:32;5.15;;;4.75;;
57573;SDS011;68988;49.000;21.242;2023-12-20T07:15:57;5.45;;;4.82;;
57573;SDS011;68988;49.000;21.242;2023-12-20T07:18:22;5.93;;;5.43;;
57573;SDS011;68988;49.000;21.242;2023-12-20T07:20:48;5.72;;;5.10;;
57573;SDS011;68988;49.000;21.242;2023-12-20T07:23:13;5.13;;;4.60;;
57573;SDS011;68988;49.000;21.242;2023-12-20T07:25:38;5.45;;;5.07;;
57573;SDS011;68988;49.000;21.242;2023-12-20T07:28:04;5.50;;;5.10;;
57573;SDS011;68988;49.000;21.242;2023-12-20T07:30:30;9.63;;;4.60;;
57573;SDS011;68988;49.000;21.242;2023-12-20T07:32:55;4.97;;;4.68;;
57573;SDS011;68988;49.000;21.242;2023-12-20T07:35:21;4.65;;;4.43;;
57573;SDS011;68988;49.000;21.242;2023-12-20T07:37:48;4.68;;;4.28;;
57573;SDS011;68988;49.000;21.242;2023-12-20T07:40:13;4.35;;;4.05;;
57573;SDS011;68988;49.000;21.242;2023-12-20T07:42:38;4.95;;;4.68;;
57573;SDS011;68988;49.000;21.242;2023-12-20T07:45:04;6.63;;;4.65;;
57573;SDS011;68988;49.000;21.242;2023-12-20T07:47:30;8.05;;;4.80;;
57573;SDS011;68988;49.000;21.242;2023-12-20T07:49:55;5.10;;;4.60;;
57573;SDS011;68988;49.000;21.242;2023-12-20T07:52:21;5.03;;;4.65;;
57573;SDS011;68988;49.000;21.242;2023-12-20T07:54:47;9.43;;;4.90;;
57573;SDS011;68988;49.000;21.242;2023-12-20T07:57:13;8.93;;;5.22;;
57573;SDS011;68988;49.000;21.242;2023-12-20T07:59:38;5.32;;;4.93;;
57573;SDS011;68988;49.000;21.242;2023-12-20T08:02:04;5.50;;;4.78;;
57573;SDS011;68988;49.000;21.242;2023-12-20T08:04:29;5.97;;;5.50;;
57573;SDS011;68988;49.000;21.242;2023-12-20T08:06:55;11.20;;;5.05;;
57573;SDS011;68988;49.000;21.242;2023-12-20T08:09:20;5.15;;;4.60;;
57573;SDS011;68988;49.000;21.242;2023-12-20T08:11:46;6.55;;;4.53;;
57573;SDS011;68988;49.000;21.242;2023-12-20T08:14:12;4.93;;;4.63;;
57573;SDS011;68988;49.000;21.242;2023-12-20T08:16:37;4.72;;;4.32;;
57573;SDS011;68988;49.000;21.242;2023-12-20T08:19:02;4.55;;;4.25;;
57573;SDS011;68988;49.000;21.242;2023-12-20T08:21:28;8.02;;;4.60;;
57573;SDS011;68988;49.000;21.242;2023-12-20T08:23:53;5.93;;;4.30;;
57573;SDS011;68988;49.000;21.242;2023-12-20T08:26:19;5.03;;;4.68;;
57573;SDS011;68988;49.000;21.242;2023-12-20T08:28:46;4.53;;;4.32;;
57573;SDS011;68988;49.000;21.242;2023-12-20T08:31:14;5.15;;;4.80;;
57573;SDS011;68988;49.000;21.242;2023-12-20T08:33:41;5.30;;;4.82;;
57573;SDS011;68988;49.000;21.242;2023-12-20T08:36:08;4.75;;;4.38;;
57573;SDS011;68988;49.000;21.242;2023-12-20T08:38:33;4.90;;;4.60;;
57573;SDS011;68988;49.000;21.242;2023-12-20T08:40:59;49.17;;;6.00;;
57573;SDS011;68988;49.000;21.242;2023-12-20T08:43:24;30.45;;;5.18;;
57573;SDS011;68988;49.000;21.242;2023-12-20T08:45:50;22.88;;;5.03;;
57573;SDS011;68988;49.000;21.242;2023-12-20T08:48:15;21.77;;;5.30;;
57573;SDS011;68988;49.000;21.242;2023-12-20T08:50:40;14.57;;;4.60;;
57573;SDS011;68988;49.000;21.242;2023-12-20T08:53:06;13.32;;;4.65;;
57573;SDS011;68988;49.000;21.242;2023-12-20T08:55:31;9.23;;;4.78;;
57573;SDS011;68988;49.000;21.242;2023-12-20T08:57:57;13.65;;;5.13;;
57573;SDS011;68988;49.000;21.242;2023-12-20T09:00:22;13.00;;;4.35;;
57573;SDS011;68988;49.000;21.242;2023-12-20T09:02:50;12.57;;;4.53;;
57573;SDS011;68988;49.000;21.242;2023-12-20T09:05:16;6.13;;;5.28;;
57573;SDS011;68988;49.000;21.242;2023-12-20T09:07:41;15.65;;;4.70;;
57573;SDS011;68988;49.000;21.242;2023-12-20T09:10:07;13.00;;;5.28;;
57573;SDS011;68988;49.000;21.242;2023-12-20T09:12:32;15.25;;;5.30;;
57573;SDS011;68988;49.000;21.242;2023-12-20T09:14:57;13.93;;;5.40;;
57573;SDS011;68988;49.000;21.242;2023-12-20T09:17:23;15.68;;;5.03;;
57573;SDS011;68988;49.000;21.242;2023-12-20T09:19:48;12.75;;;5.10;;
57573;SDS011;68988;49.000;21.242;2023-12-20T09:22:14;11.30;;;4.80;;
57573;SDS011;68988;49.000;21.242;2023-12-20T09:24:39;9.48;;;4.72;;
57573;SDS011;68988;49.000;21.242;2023-12-20T09:27:05;24.02;;;5.40;;
57573;SDS011;68988;49.000;21.242;2023-12-20T09:29:31;10.40;;;5.40;;
57573;SDS011;68988;49.000;21.242;2023-12-20T09:31:56;15.82;;;4.68;;
57573;SDS011;68988;49.000;21.242;2023-12-20T09:34:22;13.07;;;5.13;;
57573;SDS011;68988;49.000;21.242;2023-12-20T09:36:49;10.13;;;5.72;;
57573;SDS011;68988;49.000;21.242;2023-12-20T09:39:14;12.93;;;5.22;;
57573;SDS011;68988;49.000;21.242;2023-12-20T09:41:44;15.30;;;5.30;;
57573;SDS011;68988;49.000;21.242;2023-12-20T09:44:15;8.15;;;5.03;;
57573;SDS011;68988;49.000;21.242;2023-12-20T09:46:44;10.68;;;5.63;;
57573;SDS011;68988;49.000;21.242;2023-12-20T09:49:13;26.50;;;5.65;;
57573;SDS011;68988;49.000;21.242;2023-12-20T09:51:39;9.63;;;4.57;;
57573;SDS011;68988;49.000;21.242;2023-12-20T09:54:05;14.20;;;5.63;;
57573;SDS011;68988;49.000;21.242;2023-12-20T09:56:31;15.68;;;5.60;;
57573;SDS011;68988;49.000;21.242;2023-12-20T09:58:56;11.20;;;5.78;;
57573;SDS011;68988;49.000;21.242;2023-12-20T10:01:22;8.38;;;4.93;;
57573;SDS011;68988;49.000;21.242;2023-12-20T10:03:49;12.68;;;5.45;;
57573;SDS011;68988;49.000;21.242;2023-12-20T10:06:16;13.07;;;4.82;;
57573;SDS011;68988;49.000;21.242;2023-12-20T10:11:17;14.02;;;5.07;;
57573;SDS011;68988;49.000;21.242;2023-12-20T10:13:44;11.32;;;5.03;;
57573;SDS011;68988;49.000;21.242;2023-12-20T10:16:13;12.40;;;5.40;;
57573;SDS011;68988;49.000;21.242;2023-12-20T10:18:38;8.05;;;5.03;;
57573;SDS011;68988;49.000;21.242;2023-12-20T10:21:04;13.55;;;5.63;;
57573;SDS011;68988;49.000;21.242;2023-12-20T10:23:31;7.55;;;5.10;;
57573;SDS011;68988;49.000;21.242;2023-12-20T10:26:00;14.15;;;5.18;;
57573;SDS011;68988;49.000;21.242;2023-12-20T10:28:25;10.15;;;5.50;;
57573;SDS011;68988;49.000;21.242;2023-12-20T10:30:53;10.95;;;5.10;;
57573;SDS011;68988;49.000;21.242;2023-12-20T10:33:26;11.48;;;5.30;;
57573;SDS011;68988;49.000;21.242;2023-12-20T10:35:53;23.27;;;6.07;;
57573;SDS011;68988;49.000;21.242;2023-12-20T10:38:21;11.30;;;5.25;;
57573;SDS011;68988;49.000;21.242;2023-12-20T10:40:47;8.77;;;5.60;;
57573;SDS011;68988;49.000;21.242;2023-12-20T10:43:12;7.25;;;4.80;;
57573;SDS011;68988;49.000;21.242;2023-12-20T10:45:40;8.32;;;5.13;;
57573;SDS011;68988;49.000;21.242;2023-12-20T10:48:06;9.40;;;5.03;;
57573;SDS011;68988;49.000;21.242;2023-12-20T10:50:32;9.48;;;4.97;;
57573;SDS011;68988;49.000;21.242;2023-12-20T10:53:01;7.20;;;4.68;;
57573;SDS011;68988;49.000;21.242;2023-12-20T10:55:27;9.13;;;5.45;;
57573;SDS011;68988;49.000;21.242;2023-12-20T10:57:54;7.45;;;5.07;;
57573;SDS011;68988;49.000;21.242;2023-12-20T11:00:25;9.80;;;5.20;;
57573;SDS011;68988;49.000;21.242;2023-12-20T11:02:51;8.55;;;5.30;;
57573;SDS011;68988;49.000;21.242;2023-12-20T11:08:11;7.10;;;5.75;;
57573;SDS011;68988;49.000;21.242;2023-12-20T11:10:42;7.85;;;4.93;;
57573;SDS011;68988;49.000;21.242;2023-12-20T11:13:20;9.88;;;5.35;;
57573;SDS011;68988;49.000;21.242;2023-12-20T11:15:48;10.18;;;4.90;;
57573;SDS011;68988;49.000;21.242;2023-12-20T11:18:14;7.30;;;5.00;;
57573;SDS011;68988;49.000;21.242;2023-12-20T11:20:41;6.40;;;4.72;;
57573;SDS011;68988;49.000;21.242;2023-12-20T11:23:08;6.15;;;5.35;;
57573;SDS011;68988;49.000;21.242;2023-12-20T11:25:45;12.52;;;5.50;;
57573;SDS011;68988;49.000;21.242;2023-12-20T11:28:21;10.13;;;5.70;;
57573;SDS011;68988;49.000;21.242;2023-12-20T11:30:54;8.38;;;5.25;;
57573;SDS011;68988;49.000;21.242;2023-12-20T11:33:24;10.93;;;4.90;;
57573;SDS011;68988;49.000;21.242;2023-12-20T11:35:55;12.52;;;6.22;;
57573;SDS011;68988;49.000;21.242;2023-12-20T11:38:21;16.83;;;5.85;;
57573;SDS011;68988;49.000;21.242;2023-12-20T11:40:48;30.58;;;5.57;;
57573;SDS011;68988;49.000;21.242;2023-12-20T11:46:06;16.92;;;5.20;;
57573;SDS011;68988;49.000;21.242;2023-12-20T11:48:34;16.67;;;5.38;;
57573;SDS011;68988;49.000;21.242;2023-12-20T11:51:00;11.63;;;5.22;;
57573;SDS011;68988;49.000;21.242;2023-12-20T11:53:26;13.85;;;5.50;;
57573;SDS011;68988;49.000;21.242;2023-12-20T11:55:52;11.15;;;5.32;;
57573;SDS011;68988;49.000;21.242;2023-12-20T11:58:19;5.95;;;5.28;;
57573;SDS011;68988;49.000;21.242;2023-12-20T12:00:45;12.02;;;5.80;;
57573;SDS011;68988;49.000;21.242;2023-12-20T12:03:14;12.15;;;4.90;;
57573;SDS011;68988;49.000;21.242;2023-12-20T12:05:40;13.73;;;5.85;;
57573;SDS011;68988;49.000;21.242;2023-12-20T12:08:06;11.65;;;5.18;;
57573;SDS011;68988;49.000;21.242;2023-12-20T12:10:32;7.22;;;4.68;;
57573;SDS011;68988;49.000;21.242;2023-12-20T12:12:58;7.43;;;5.10;;
57573;SDS011;68988;49.000;21.242;2023-12-20T12:15:24;7.78;;;5.10;;
57573;SDS011;68988;49.000;21.242;2023-12-20T12:17:53;9.25;;;4.97;;
57573;SDS011;68988;49.000;21.242;2023-12-20T12:20:20;10.85;;;4.82;;
57573;SDS011;68988;49.000;21.242;2023-12-20T12:22:46;7.50;;;4.82;;
57573;SDS011;68988;49.000;21.242;2023-12-20T12:25:16;12.48;;;4.97;;
57573;SDS011;68988;49.000;21.242;2023-12-20T12:27:41;6.70;;;5.00;;
57573;SDS011;68988;49.000;21.242;2023-12-20T12:30:07;8.90;;;5.25;;
57573;SDS011;68988;49.000;21.242;2023-12-20T12:32:34;10.32;;;4.82;;
57573;SDS011;68988;49.000;21.242;2023-12-20T12:35:00;8.75;;;5.05;;
57573;SDS011;68988;49.000;21.242;2023-12-20T12:37:25;8.43;;;5.00;;
57573;SDS011;68988;49.000;21.242;2023-12-20T12:39:53;11.52;;;5.22;;
57573;SDS011;68988;49.000;21.242;2023-12-20T12:42:19;8.02;;;5.15;;
57573;SDS011;68988;49.000;21.242;2023-12-20T12:44:45;11.93;;;4.70;;
57573;SDS011;68988;49.000;21.242;2023-12-20T12:47:11;9.93;;;4.80;;
57573;SDS011;68988;49.000;21.242;2023-12-20T12:49:36;5.45;;;4.95;;
57573;SDS011;68988;49.000;21.242;2023-12-20T12:52:01;5.43;;;4.93;;
57573;SDS011;68988;49.000;21.242;2023-12-20T12:54:28;6.40;;;4.70;;
57573;SDS011;68988;49.000;21.242;2023-12-20T12:56:53;6.38;;;5.03;;
57573;SDS011;68988;49.000;21.242;2023-12-20T12:59:18;7.18;;;4.63;;
57573;SDS011;68988;49.000;21.242;2023-12-20T13:01:44;6.03;;;4.57;;
57573;SDS011;68988;49.000;21.242;2023-12-20T13:04:09;7.80;;;5.00;;
57573;SDS011;68988;49.000;21.242;2023-12-20T13:06:38;10.25;;;5.20;;
57573;SDS011;68988;49.000;21.242;2023-12-20T13:09:05;6.20;;;4.85;;
57573;SDS011;68988;49.000;21.242;2023-12-20T13:11:31;6.82;;;4.53;;
57573;SDS011;68988;49.000;21.242;2023-12-20T13:13:57;5.70;;;4.72;;
57573;SDS011;68988;49.000;21.242;2023-12-20T13:16:25;11.00;;;4.85;;
57573;SDS011;68988;49.000;21.242;2023-12-20T13:18:51;8.15;;;4.78;;
57573;SDS011;68988;49.000;21.242;2023-12-20T13:21:17;10.23;;;5.00;;
57573;SDS011;68988;49.000;21.242;2023-12-20T13:23:42;12.40;;;4.93;;
57573;SDS011;68988;49.000;21.242;2023-12-20T13:26:08;11.88;;;5.10;;
57573;SDS011;68988;49.000;21.242;2023-12-20T13:28:33;6.38;;;4.53;;
57573;SDS011;68988;49.000;21.242;2023-12-20T13:30:59;6.78;;;5.07;;
57573;SDS011;68988;49.000;21.242;2023-12-20T13:33:24;6.97;;;4.68;;
57573;SDS011;68988;49.000;21.242;2023-12-20T13:35:50;6.40;;;5.38;;
57573;SDS011;68988;49.000;21.242;2023-12-20T13:38:16;14.88;;;5.18;;
57573;SDS011;68988;49.000;21.242;2023-12-20T13:40:41;7.57;;;4.45;;
57573;SDS011;68988;49.000;21.242;2023-12-20T13:43:06;9.25;;;5.15;;
57573;SDS011;68988;49.000;21.242;2023-12-20T13:45:32;9.55;;;5.18;;
57573;SDS011;68988;49.000;21.242;2023-12-20T13:47:58;12.45;;;4.88;;
57573;SDS011;68988;49.000;21.242;2023-12-20T13:50:23;7.35;;;5.00;;
57573;SDS011;68988;49.000;21.242;2023-12-20T13:52:49;6.80;;;5.20;;
57573;SDS011;68988;49.000;21.242;2023-12-20T13:55:14;9.57;;;5.00;;
57573;SDS011;68988;49.000;21.242;2023-12-20T13:57:40;6.72;;;4.63;;
57573;SDS011;68988;49.000;21.242;2023-12-20T14:00:06;5.35;;;4.82;;
57573;SDS011;68988;49.000;21.242;2023-12-20T14:02:39;7.22;;;4.93;;
57573;SDS011;68988;49.000;21.242;2023-12-20T14:05:04;7.03;;;4.40;;
57573;SDS011;68988;49.000;21.242;2023-12-20T14:07:31;8.25;;;4.68;;
57573;SDS011;68988;49.000;21.242;2023-12-20T14:09:56;15.52;;;5.25;;
57573;SDS011;68988;49.000;21.242;2023-12-20T14:12:22;10.05;;;5.13;;
57573;SDS011;68988;49.000;21.242;2023-12-20T14:14:47;11.65;;;4.90;;
57573;SDS011;68988;49.000;21.242;2023-12-20T14:17:12;6.00;;;4.63;;
57573;SDS011;68988;49.000;21.242;2023-12-20T14:19:38;9.23;;;4.88;;
57573;SDS011;68988;49.000;21.242;2023-12-20T14:22:04;10.85;;;4.75;;
57573;SDS011;68988;49.000;21.242;2023-12-20T14:24:30;10.52;;;5.10;;
57573;SDS011;68988;49.000;21.242;2023-12-20T14:26:55;10.77;;;5.22;;
57573;SDS011;68988;49.000;21.242;2023-12-20T14:29:21;8.00;;;5.05;;
57573;SDS011;68988;49.000;21.242;2023-12-20T14:31:46;11.82;;;4.97;;